Time;durP1;ratioP1;P1;durP2;ratioP2;P2;SDS_P1;SDS_P2;PMS_P1;PMS_P2;Temp;Humidity;BMP_temperature;BMP_pressure;BME280_temperature;BME280_humidity;BME280_pressure;Samples;Min_cycle;Max_cycle;Signal;HPM_P1;HPM_P2
2023/11/02 00:01:52;;;;;;;1.60;0.40;;;10.10;99.90;;;;;;4895048;28;20060;-93
2023/11/02 00:04:18;;;;;;;5.00;0.50;;;10.20;99.90;;;;;;4894998;28;20045;-94
2023/11/02 00:06:46;;;;;;;4.30;0.50;;;10.20;99.90;;;;;;4894791;29;20516;-94
2023/11/02 00:09:32;;;;;;;3.75;0.80;;;10.20;99.90;;;;;;4921586;28;20147;-93
2023/11/02 00:12:02;;;;;;;3.25;0.50;;;10.30;99.90;;;;;;4895240;28;20032;-93
2023/11/02 00:14:33;;;;;;;3.38;0.40;;;10.30;99.90;;;;;;4894911;28;20036;-94
2023/11/02 00:16:58;;;;;;;2.72;0.45;;;10.30;99.90;;;;;;4885886;28;20500;-93
2023/11/02 00:19:37;;;;;;;3.05;0.30;;;10.40;99.90;;;;;;4951947;28;20034;-93
2023/11/02 00:22:10;;;;;;;2.55;0.35;;;10.50;99.90;;;;;;4889549;29;20603;-93
2023/11/02 00:24:37;;;;;;;4.80;0.30;;;10.40;99.90;;;;;;4894779;28;20583;-95
2023/11/02 00:27:03;;;;;;;6.25;0.57;;;10.50;99.90;;;;;;4895238;28;20044;-94
2023/11/02 00:29:30;;;;;;;5.40;0.50;;;10.40;99.90;;;;;;4894826;29;20123;-94
2023/11/02 00:31:56;;;;;;;4.15;0.30;;;10.40;99.90;;;;;;4880101;28;20033;-94
2023/11/02 00:34:21;;;;;;;5.90;0.60;;;10.50;99.90;;;;;;4888752;29;20140;-92
2023/11/02 00:36:47;;;;;;;5.47;0.60;;;10.40;99.90;;;;;;4891650;28;20035;-94
2023/11/02 00:39:13;;;;;;;1.52;0.30;;;10.50;99.90;;;;;;4918559;28;20952;-93
2023/11/02 00:41:39;;;;;;;3.33;0.30;;;10.50;99.90;;;;;;4885252;28;20103;-92
2023/11/02 00:44:05;;;;;;;7.93;0.60;;;10.50;99.90;;;;;;4894308;28;20488;-93
2023/11/02 00:46:33;;;;;;;5.93;0.60;;;10.50;99.90;;;;;;4894047;28;20029;-93
2023/11/02 00:48:59;;;;;;;6.88;1.00;;;10.50;99.90;;;;;;4893699;28;20036;-94
2023/11/02 00:51:30;;;;;;;4.82;0.60;;;10.50;99.90;;;;;;4904488;28;20020;-94
2023/11/02 00:54:06;;;;;;;5.00;0.40;;;10.50;99.90;;;;;;4893972;28;20571;-93
2023/11/02 00:56:36;;;;;;;2.83;0.40;;;10.40;99.90;;;;;;4890023;28;20033;-93
2023/11/02 00:59:04;;;;;;;3.45;0.40;;;10.40;99.90;;;;;;4909899;28;20059;-92
2023/11/02 01:01:31;;;;;;;2.05;0.47;;;10.40;99.90;;;;;;4888157;28;20075;-93
2023/11/02 01:04:48;;;;;;;3.40;0.47;;;10.30;99.90;;;;;;4893952;28;20100;-94
2023/11/02 01:07:15;;;;;;;3.08;0.40;;;10.30;99.90;;;;;;4903053;28;20025;-93
2023/11/02 01:09:46;;;;;;;2.42;0.40;;;10.30;99.90;;;;;;4893505;28;20480;-92
2023/11/02 01:12:32;;;;;;;3.70;0.40;;;10.30;99.90;;;;;;4898179;28;20040;-92
2023/11/02 01:14:58;;;;;;;6.78;0.90;;;10.30;99.90;;;;;;4876806;28;20049;-93
2023/11/02 01:17:31;;;;;;;3.72;0.40;;;10.30;99.90;;;;;;4905528;28;20036;-92
2023/11/02 01:20:10;;;;;;;1.83;0.52;;;10.30;99.90;;;;;;4908674;28;20045;-94
2023/11/02 01:22:50;;;;;;;7.10;1.17;;;10.30;99.90;;;;;;4892511;28;20044;-94
2023/11/02 01:25:16;;;;;;;5.25;0.40;;;10.30;99.90;;;;;;4894924;28;20396;-93
2023/11/02 01:27:42;;;;;;;2.10;0.38;;;10.30;99.90;;;;;;4893001;28;20036;-93
2023/11/02 01:30:17;;;;;;;2.08;0.40;;;10.30;99.90;;;;;;4974850;28;20552;-92
2023/11/02 01:32:42;;;;;;;0.82;0.30;;;10.30;99.90;;;;;;4909258;28;20044;-91
2023/11/02 01:35:29;;;;;;;1.48;0.50;;;10.30;99.90;;;;;;4894727;29;20492;-92
2023/11/02 01:37:55;;;;;;;3.95;0.47;;;10.30;99.90;;;;;;4893279;28;20600;-92
2023/11/02 01:40:51;;;;;;;3.03;0.32;;;10.30;99.90;;;;;;4933975;28;20033;-92
2023/11/02 01:43:24;;;;;;;4.97;0.30;;;10.40;99.90;;;;;;4888944;28;20473;-92
2023/11/02 01:45:52;;;;;;;3.05;0.40;;;10.40;99.90;;;;;;4893510;28;20099;-92
2023/11/02 01:48:21;;;;;;;1.88;0.30;;;10.40;99.90;;;;;;4906757;28;20033;-92
2023/11/02 01:50:55;;;;;;;4.55;0.30;;;10.40;99.90;;;;;;4922898;28;20052;-91
2023/11/02 01:53:44;;;;;;;1.83;0.30;;;10.50;99.90;;;;;;4899744;28;20033;-91
2023/11/02 01:56:32;;;;;;;4.10;0.30;;;10.50;99.90;;;;;;4900216;28;20044;-92
2023/11/02 01:59:11;;;;;;;4.20;0.30;;;10.50;99.90;;;;;;4923959;28;20030;-91
2023/11/02 02:02:03;;;;;;;2.00;0.30;;;10.50;99.90;;;;;;4913572;28;20044;-91
2023/11/02 02:05:05;;;;;;;3.58;0.30;;;10.50;99.90;;;;;;4881636;28;20110;-92
2023/11/02 02:07:58;;;;;;;2.00;0.30;;;10.50;99.90;;;;;;4887032;28;20063;-92
2023/11/02 02:10:41;;;;;;;5.40;0.38;;;10.50;99.90;;;;;;4959564;28;20026;-92
2023/11/02 02:13:25;;;;;;;2.70;0.38;;;10.40;99.90;;;;;;4900826;29;20045;-92
2023/11/02 02:16:08;;;;;;;1.85;0.50;;;10.40;99.90;;;;;;4896897;28;20107;-92
2023/11/02 02:18:47;;;;;;;3.92;0.55;;;10.40;99.90;;;;;;4896173;28;20031;-91
2023/11/02 02:21:41;;;;;;;1.65;0.30;;;10.40;99.90;;;;;;4919175;28;20029;-90
2023/11/02 02:24:17;;;;;;;5.35;0.40;;;10.40;99.90;;;;;;4890465;28;20087;-92
2023/11/02 02:27:03;;;;;;;1.77;0.20;;;10.40;99.90;;;;;;4897780;28;20044;-93
2023/11/02 02:29:42;;;;;;;3.40;0.28;;;10.40;99.90;;;;;;4912011;28;20404;-91
2023/11/02 02:32:19;;;;;;;2.95;0.22;;;10.40;99.90;;;;;;4994562;28;20037;-92
2023/11/02 02:35:07;;;;;;;5.55;1.05;;;10.40;99.90;;;;;;4898576;28;20068;-89
2023/11/02 02:37:49;;;;;;;5.85;0.43;;;10.40;99.90;;;;;;4893314;28;20116;-91
2023/11/02 02:40:21;;;;;;;9.48;0.43;;;10.50;99.90;;;;;;4889438;28;20480;-91
2023/11/02 02:42:51;;;;;;;3.78;0.30;;;10.50;99.90;;;;;;4894569;28;20037;-92
2023/11/02 02:45:17;;;;;;;3.58;0.32;;;10.50;99.90;;;;;;4912518;28;20094;-92
2023/11/02 02:47:45;;;;;;;4.80;0.30;;;10.60;99.90;;;;;;4895862;28;20139;-91
2023/11/02 02:50:14;;;;;;;5.00;0.30;;;10.60;99.90;;;;;;4896331;28;20025;-92
2023/11/02 02:52:41;;;;;;;6.70;0.40;;;10.70;99.90;;;;;;4895607;28;20040;-91
2023/11/02 02:55:12;;;;;;;3.33;0.20;;;10.70;99.90;;;;;;4896262;28;20488;-92
2023/11/02 02:57:45;;;;;;;5.10;0.30;;;10.70;99.90;;;;;;4893896;28;20493;-92
2023/11/02 03:00:13;;;;;;;;;;;10.70;99.90;;;;;;4893915;28;20393;-93
2023/11/02 03:02:40;;;;;;;2.30;0.30;;;10.70;99.90;;;;;;4903533;28;19919;-91
2023/11/02 03:05:10;;;;;;;4.35;0.40;;;10.70;99.90;;;;;;4893265;28;20033;-91
2023/11/02 03:07:36;;;;;;;2.25;0.30;;;10.70;99.90;;;;;;4895492;28;20039;-92
2023/11/02 03:10:06;;;;;;;3.78;0.45;;;10.70;99.90;;;;;;4890429;29;20033;-93
2023/11/02 03:12:34;;;;;;;4.63;0.52;;;10.70;99.90;;;;;;4910262;28;20024;-93
2023/11/02 03:15:04;;;;;;;4.50;0.75;;;10.70;99.90;;;;;;4894497;28;20069;-91
2023/11/02 03:17:50;;;;;;;3.70;0.30;;;10.70;99.90;;;;;;4895050;28;20036;-92
2023/11/02 03:20:17;;;;;;;5.82;0.30;;;10.80;99.90;;;;;;4894626;28;21008;-91
2023/11/02 03:22:43;;;;;;;3.50;0.30;;;10.80;99.90;;;;;;4894998;28;20040;-91
2023/11/02 03:25:28;;;;;;;3.60;0.20;;;10.80;99.90;;;;;;4896237;28;20088;-91
2023/11/02 03:28:17;;;;;;;4.35;0.90;;;10.80;99.90;;;;;;4895422;29;20511;-92
2023/11/02 03:30:49;;;;;;;7.38;0.30;;;10.80;99.90;;;;;;4906157;28;20044;-91
2023/11/02 03:33:26;;;;;;;4.80;0.32;;;10.90;99.90;;;;;;4906734;28;20506;-93
2023/11/02 03:36:12;;;;;;;2.92;0.30;;;10.90;99.90;;;;;;4910316;29;20511;-92
2023/11/02 03:38:43;;;;;;;5.13;0.82;;;10.90;99.90;;;;;;4895514;28;20027;-91
2023/11/02 03:41:24;;;;;;;3.97;0.87;;;11.00;99.90;;;;;;4895020;28;20056;-91
2023/11/02 03:44:02;;;;;;;5.35;1.83;;;11.00;99.90;;;;;;4907457;29;20032;-94
2023/11/02 03:46:55;;;;;;;3.60;0.75;;;11.00;99.90;;;;;;4895359;29;20032;-92
2023/11/02 03:49:32;;;;;;;4.10;0.80;;;11.00;99.90;;;;;;4901218;28;20036;-92
2023/11/02 03:52:48;;;;;;;5.03;0.77;;;11.10;99.90;;;;;;4912128;28;20088;-91
2023/11/02 03:55:37;;;;;;;6.55;0.93;;;11.10;99.90;;;;;;4899412;28;20049;-92
2023/11/02 03:58:31;;;;;;;3.05;0.30;;;11.10;99.90;;;;;;4892465;29;20029;-92
2023/11/02 04:01:21;;;;;;;2.25;0.40;;;11.20;99.90;;;;;;4895805;28;20392;-91
2023/11/02 04:03:52;;;;;;;2.03;0.40;;;11.20;99.90;;;;;;4878269;28;20048;-91
2023/11/02 04:06:29;;;;;;;3.90;0.40;;;11.20;99.90;;;;;;4895120;28;20036;-92
2023/11/02 04:08:59;;;;;;;4.95;0.30;;;11.20;99.90;;;;;;4889872;28;20108;-92
2023/11/02 04:11:29;;;;;;;2.60;0.20;;;11.20;99.90;;;;;;4894871;28;20498;-93
2023/11/02 04:14:17;;;;;;;2.70;0.40;;;11.20;99.90;;;;;;4881102;28;20475;-91
2023/11/02 04:16:43;;;;;;;4.95;0.20;;;11.20;99.90;;;;;;4894268;29;20452;-93
2023/11/02 04:19:08;;;;;;;2.65;0.30;;;11.20;99.90;;;;;;4891543;28;20108;-93
2023/11/02 04:21:34;;;;;;;4.25;0.40;;;11.20;99.90;;;;;;4894353;28;20068;-92
2023/11/02 04:24:00;;;;;;;3.83;0.47;;;11.20;99.90;;;;;;4900126;28;20036;-92
2023/11/02 04:26:28;;;;;;;4.65;0.40;;;11.10;99.90;;;;;;4893518;29;20021;-92
2023/11/02 04:28:54;;;;;;;2.33;0.30;;;11.10;99.90;;;;;;4894387;28;20024;-91
2023/11/02 04:31:20;;;;;;;3.42;0.40;;;11.20;99.90;;;;;;4894376;28;20384;-92
2023/11/02 04:33:45;;;;;;;4.43;0.60;;;11.10;99.90;;;;;;4894131;28;20037;-92
2023/11/02 04:36:11;;;;;;;3.92;0.40;;;11.10;99.90;;;;;;4895321;29;20091;-91
2023/11/02 04:38:37;;;;;;;6.43;0.50;;;11.10;99.90;;;;;;4894767;28;20029;-91
2023/11/02 04:41:03;;;;;;;5.35;0.40;;;11.20;99.90;;;;;;4892650;29;20032;-93
2023/11/02 04:43:28;;;;;;;8.52;0.40;;;11.20;99.90;;;;;;4894669;28;20059;-93
2023/11/02 04:45:54;;;;;;;3.50;0.30;;;11.30;99.90;;;;;;4893384;28;20477;-92
2023/11/02 04:48:20;;;;;;;3.17;0.20;;;11.30;99.90;;;;;;4894674;28;20024;-91
2023/11/02 04:50:47;;;;;;;3.40;0.30;;;11.30;99.90;;;;;;4897070;28;20123;-92
2023/11/02 04:53:12;;;;;;;2.75;0.35;;;11.30;99.90;;;;;;4895109;28;20040;-92
2023/11/02 04:55:40;;;;;;;3.70;0.40;;;11.30;99.90;;;;;;4891968;28;20087;-92
2023/11/02 04:58:06;;;;;;;3.38;0.20;;;11.30;99.90;;;;;;4897513;29;20017;-93
2023/11/02 05:00:31;;;;;;;4.10;0.32;;;11.30;99.90;;;;;;4886268;28;20149;-91
2023/11/02 05:02:57;;;;;;;2.30;0.30;;;11.30;99.90;;;;;;4882676;28;20100;-92
2023/11/02 05:05:22;;;;;;;3.55;0.68;;;11.30;99.90;;;;;;4891418;28;20681;-92
2023/11/02 05:07:48;;;;;;;4.10;0.25;;;11.30;99.90;;;;;;4894270;28;20028;-91
2023/11/02 05:10:14;;;;;;;2.17;0.22;;;11.30;99.90;;;;;;4894316;28;20496;-91
2023/11/02 05:12:39;;;;;;;4.00;0.30;;;11.40;99.90;;;;;;4894155;28;20060;-92
2023/11/02 05:15:05;;;;;;;1.60;0.20;;;11.40;99.90;;;;;;4903039;28;20111;-91
2023/11/02 05:17:31;;;;;;;4.97;0.40;;;11.40;99.90;;;;;;4891056;28;20029;-93
2023/11/02 05:19:57;;;;;;;2.38;0.20;;;11.40;99.90;;;;;;4888731;29;20035;-93
2023/11/02 05:22:22;;;;;;;1.08;0.20;;;11.40;99.90;;;;;;4893482;28;20039;-92
2023/11/02 05:24:48;;;;;;;4.22;0.30;;;11.40;99.90;;;;;;4894006;28;20131;-92
2023/11/02 05:27:13;;;;;;;4.53;0.40;;;11.40;99.90;;;;;;4893397;28;20034;-92
2023/11/02 05:29:39;;;;;;;3.72;0.30;;;11.40;99.90;;;;;;4894513;28;20068;-92
2023/11/02 05:32:04;;;;;;;2.60;0.32;;;11.40;99.90;;;;;;4894798;28;20032;-94
2023/11/02 05:34:30;;;;;;;1.65;0.20;;;11.50;99.90;;;;;;4895430;28;20076;-92
2023/11/02 05:36:55;;;;;;;1.90;0.30;;;11.60;99.90;;;;;;4893954;28;20495;-93
2023/11/02 05:39:21;;;;;;;2.05;0.70;;;11.50;99.90;;;;;;4907905;28;20052;-93
2023/11/02 05:41:46;;;;;;;3.95;0.40;;;11.40;99.90;;;;;;4891033;28;20063;-93
2023/11/02 05:44:12;;;;;;;1.85;0.28;;;11.40;99.90;;;;;;4891805;28;20459;-94
2023/11/02 05:46:38;;;;;;;4.32;0.20;;;11.50;99.90;;;;;;4893845;29;20076;-90
2023/11/02 05:49:03;;;;;;;3.47;0.20;;;11.50;99.90;;;;;;4894218;29;20115;-94
2023/11/02 05:51:29;;;;;;;2.35;0.35;;;11.50;99.90;;;;;;4893583;28;20028;-92
2023/11/02 05:53:54;;;;;;;4.93;0.30;;;11.50;99.90;;;;;;4893497;29;20446;-92
2023/11/02 05:56:20;;;;;;;10.95;2.17;;;11.50;99.90;;;;;;4888842;28;20555;-92
2023/11/02 05:58:49;;;;;;;2.67;0.30;;;11.50;99.90;;;;;;4893843;29;20032;-93
2023/11/02 06:01:14;;;;;;;2.67;0.40;;;11.60;99.90;;;;;;4893494;29;20036;-94
2023/11/02 06:03:40;;;;;;;3.20;0.40;;;11.60;99.90;;;;;;4890091;29;20056;-93
2023/11/02 06:06:06;;;;;;;3.00;0.60;;;11.50;99.90;;;;;;4891416;29;20025;-94
2023/11/02 06:08:32;;;;;;;3.40;0.50;;;11.40;99.90;;;;;;4894367;28;20408;-91
2023/11/02 06:10:57;;;;;;;1.95;0.40;;;11.30;99.90;;;;;;4894172;28;20143;-94
2023/11/02 06:13:23;;;;;;;5.78;0.75;;;11.30;99.90;;;;;;4895818;28;20481;-95
2023/11/02 06:15:48;;;;;;;4.82;0.38;;;11.30;99.90;;;;;;4904854;28;20047;-94
2023/11/02 06:18:14;;;;;;;1.60;0.30;;;11.20;99.90;;;;;;4912780;28;20032;-94
2023/11/02 06:20:39;;;;;;;2.28;0.20;;;11.20;99.90;;;;;;4898472;29;20033;-93
2023/11/02 06:23:06;;;;;;;3.25;0.30;;;11.30;99.90;;;;;;4896483;28;20117;-92
2023/11/02 06:25:31;;;;;;;1.88;0.65;;;11.30;99.90;;;;;;4893494;29;20476;-93
2023/11/02 06:27:57;;;;;;;6.47;0.30;;;11.30;99.90;;;;;;4891997;29;20032;-94
2023/11/02 06:30:23;;;;;;;0.93;0.20;;;11.40;99.90;;;;;;4893815;28;20044;-95
2023/11/02 06:32:48;;;;;;;2.58;0.30;;;11.40;99.90;;;;;;4892205;29;20033;-93
2023/11/02 06:35:14;;;;;;;4.00;0.20;;;11.40;99.90;;;;;;4890540;29;20044;-93
2023/11/02 06:38:00;;;;;;;4.43;0.30;;;11.30;99.90;;;;;;4896592;28;20127;-94
2023/11/02 06:40:27;;;;;;;3.58;0.30;;;11.30;99.90;;;;;;4893476;29;20412;-91
2023/11/02 06:42:58;;;;;;;1.65;0.30;;;11.20;99.90;;;;;;4897248;28;20056;-92
2023/11/02 06:45:24;;;;;;;1.33;0.17;;;11.10;99.90;;;;;;4893289;28;20029;-93
2023/11/02 06:47:50;;;;;;;3.80;0.20;;;10.90;99.90;;;;;;4892719;28;20033;-90
2023/11/02 06:50:15;;;;;;;1.85;0.20;;;10.90;99.90;;;;;;4890760;28;20046;-89
2023/11/02 06:52:41;;;;;;;4.55;0.35;;;10.80;99.90;;;;;;4892877;28;20080;-89
2023/11/02 06:55:07;;;;;;;1.50;0.20;;;10.70;99.90;;;;;;4896247;28;20064;-88
2023/11/02 06:57:32;;;;;;;1.38;0.28;;;10.70;99.90;;;;;;4902751;28;20040;-89
2023/11/02 06:59:58;;;;;;;2.13;0.20;;;10.70;99.90;;;;;;4894745;28;20036;-88
2023/11/02 07:02:24;;;;;;;5.25;0.32;;;10.60;99.90;;;;;;4889720;29;20041;-88
2023/11/02 07:04:55;;;;;;;2.25;0.30;;;10.70;99.90;;;;;;4894821;29;20045;-88
2023/11/02 07:07:21;;;;;;;2.90;0.30;;;10.70;99.90;;;;;;4894792;28;20025;-88
2023/11/02 07:09:47;;;;;;;1.70;0.20;;;10.60;99.90;;;;;;4892056;28;20115;-89
2023/11/02 07:12:14;;;;;;;2.13;0.20;;;10.70;99.90;;;;;;4893537;28;20025;-89
2023/11/02 07:14:41;;;;;;;1.25;0.30;;;10.70;99.90;;;;;;4888315;28;20180;-89
2023/11/02 07:17:07;;;;;;;1.42;0.35;;;10.70;99.90;;;;;;4895090;28;20088;-90
2023/11/02 07:19:32;;;;;;;2.53;0.20;;;10.60;99.90;;;;;;4892479;28;20171;-90
2023/11/02 07:21:58;;;;;;;1.98;0.22;;;10.60;99.90;;;;;;4890455;28;20488;-89
2023/11/02 07:24:24;;;;;;;1.70;0.20;;;10.60;99.90;;;;;;4893738;29;20067;-91
2023/11/02 07:26:50;;;;;;;2.50;0.20;;;10.60;99.90;;;;;;4892583;28;20031;-92
2023/11/02 07:29:15;;;;;;;2.42;0.30;;;10.60;99.90;;;;;;4900455;28;20025;-92
2023/11/02 07:31:41;;;;;;;3.22;0.82;;;10.60;99.90;;;;;;4890972;28;20544;-92
2023/11/02 07:34:07;;;;;;;2.10;0.30;;;10.70;99.90;;;;;;4893695;28;20048;-93
2023/11/02 07:36:35;;;;;;;1.50;0.13;;;10.70;99.90;;;;;;4896410;28;21907;-93
2023/11/02 07:39:01;;;;;;;2.85;0.20;;;10.80;99.90;;;;;;4894935;28;20036;-93
2023/11/02 07:41:27;;;;;;;2.35;0.30;;;10.90;99.90;;;;;;4908447;28;20017;-92
2023/11/02 07:43:52;;;;;;;2.20;0.20;;;10.90;99.90;;;;;;4923055;28;20117;-93
2023/11/02 07:46:19;;;;;;;0.93;0.25;;;11.00;99.90;;;;;;4910356;28;20063;-93
2023/11/02 07:48:44;;;;;;;1.77;0.30;;;11.10;99.90;;;;;;4895362;28;20037;-92
2023/11/02 07:51:13;;;;;;;1.75;0.20;;;11.20;99.90;;;;;;4892782;29;20035;-92
2023/11/02 07:53:39;;;;;;;1.80;0.20;;;11.20;99.90;;;;;;4895434;28;20047;-92
2023/11/02 07:56:05;;;;;;;2.70;0.28;;;11.30;99.90;;;;;;4893046;28;20029;-93
2023/11/02 07:58:30;;;;;;;1.88;0.20;;;11.30;99.90;;;;;;4902198;28;20030;-92
2023/11/02 08:00:56;;;;;;;1.98;0.20;;;11.40;99.90;;;;;;4939859;28;20028;-92
2023/11/02 08:03:21;;;;;;;1.30;0.20;;;11.40;99.90;;;;;;4892809;28;20087;-93
2023/11/02 08:05:47;;;;;;;1.33;0.30;;;11.50;99.90;;;;;;4894410;29;20037;-91
2023/11/02 08:08:12;;;;;;;3.80;0.30;;;11.60;99.90;;;;;;4885525;29;20511;-92
2023/11/02 08:10:38;;;;;;;1.50;0.20;;;11.70;99.90;;;;;;4907010;28;20035;-93
2023/11/02 08:13:03;;;;;;;1.08;0.17;;;11.80;99.90;;;;;;4916276;28;20029;-92
2023/11/02 08:15:29;;;;;;;2.47;0.20;;;11.90;99.90;;;;;;4892577;28;20037;-93
2023/11/02 08:17:55;;;;;;;4.95;0.30;;;12.10;99.90;;;;;;4894314;28;20840;-92
2023/11/02 08:20:21;;;;;;;1.38;0.20;;;12.30;99.90;;;;;;4891935;28;20033;-93
2023/11/02 08:22:46;;;;;;;0.70;0.20;;;12.40;99.90;;;;;;4894823;28;20029;-93
2023/11/02 08:25:12;;;;;;;1.95;0.22;;;12.40;99.90;;;;;;4894671;28;20029;-95
2023/11/02 08:27:38;;;;;;;1.73;0.10;;;12.50;99.90;;;;;;4907519;28;20036;-94
2023/11/02 08:30:05;;;;;;;1.95;0.20;;;12.50;99.90;;;;;;4892918;28;20028;-92
2023/11/02 08:32:30;;;;;;;2.53;0.20;;;12.60;99.90;;;;;;4892522;28;20396;-91
2023/11/02 08:34:56;;;;;;;3.30;0.30;;;12.70;99.90;;;;;;4893900;28;20044;-94
2023/11/02 08:37:23;;;;;;;2.00;0.20;;;12.80;99.90;;;;;;4894146;29;20043;-93
2023/11/02 08:39:49;;;;;;;7.25;0.47;;;12.90;99.90;;;;;;4893813;29;20447;-93
2023/11/02 08:42:14;;;;;;;5.20;0.28;;;13.00;99.90;;;;;;4894671;28;20035;-94
2023/11/02 08:44:41;;;;;;;5.97;0.30;;;13.00;99.90;;;;;;4894505;28;20398;-93
2023/11/02 08:47:06;;;;;;;3.55;0.30;;;13.20;99.90;;;;;;4909326;28;20083;-93
2023/11/02 08:49:32;;;;;;;1.98;0.25;;;13.20;99.90;;;;;;4894465;28;20444;-95
2023/11/02 08:51:58;;;;;;;3.25;0.28;;;13.20;99.90;;;;;;4892991;28;20025;-93
2023/11/02 08:54:23;;;;;;;3.75;0.43;;;13.30;99.90;;;;;;4893964;29;20086;-93
2023/11/02 08:56:49;;;;;;;3.08;0.50;;;13.30;99.90;;;;;;4910249;28;20188;-93
2023/11/02 08:59:14;;;;;;;3.58;0.30;;;13.30;99.90;;;;;;4894250;29;20037;-92
2023/11/02 09:01:43;;;;;;;5.40;0.63;;;13.40;99.90;;;;;;4894081;29;20532;-93
2023/11/02 09:04:08;;;;;;;3.78;0.30;;;13.40;99.90;;;;;;4904916;28;20052;-93
2023/11/02 09:06:34;;;;;;;4.53;0.40;;;13.40;99.90;;;;;;4893862;28;20025;-92
2023/11/02 09:08:59;;;;;;;3.88;0.57;;;13.40;99.90;;;;;;4894302;29;20039;-92
2023/11/02 09:11:25;;;;;;;5.43;0.45;;;13.40;99.90;;;;;;4908046;28;20124;-92
2023/11/02 09:13:50;;;;;;;5.03;0.40;;;13.40;99.90;;;;;;4894692;28;20040;-93
2023/11/02 09:16:16;;;;;;;3.92;0.50;;;13.40;99.90;;;;;;4893975;28;20028;-92
2023/11/02 09:18:42;;;;;;;4.22;0.47;;;13.40;99.90;;;;;;4893565;28;20123;-93
2023/11/02 09:21:08;;;;;;;4.53;0.30;;;13.60;99.90;;;;;;4893865;28;20119;-94
2023/11/02 09:23:34;;;;;;;7.13;0.70;;;13.50;99.90;;;;;;4893533;29;20036;-93
2023/11/02 09:26:05;;;;;;;2.92;0.45;;;13.60;99.90;;;;;;4903573;28;20567;-94
2023/11/02 09:28:31;;;;;;;4.30;0.30;;;13.70;99.90;;;;;;4893179;28;20032;-93
2023/11/02 09:30:56;;;;;;;5.03;0.25;;;13.80;99.90;;;;;;4893583;28;20025;-93
2023/11/02 09:33:22;;;;;;;3.13;0.20;;;13.80;99.90;;;;;;4891790;28;20048;-93
2023/11/02 09:35:48;;;;;;;3.42;0.30;;;13.90;99.90;;;;;;4893199;28;20028;-94
2023/11/02 09:38:14;;;;;;;3.35;0.30;;;14.00;99.90;;;;;;4893731;28;20021;-94
2023/11/02 09:40:40;;;;;;;4.47;0.28;;;14.10;99.90;;;;;;4889797;28;20128;-92
2023/11/02 09:43:06;;;;;;;3.83;0.30;;;14.20;99.90;;;;;;4891437;28;20432;-93
2023/11/02 09:45:33;;;;;;;5.60;0.50;;;14.30;99.90;;;;;;4900225;28;20559;-94
2023/11/02 09:48:02;;;;;;;1.75;0.20;;;14.50;99.90;;;;;;4889947;28;20034;-93
2023/11/02 09:50:27;;;;;;;4.28;0.38;;;14.70;99.90;;;;;;4893932;28;20036;-95
2023/11/02 09:52:54;;;;;;;3.80;0.30;;;14.90;99.90;;;;;;4890889;28;20029;-93
2023/11/02 09:55:21;;;;;;;7.35;0.40;;;15.00;99.90;;;;;;4891390;29;20538;-94
2023/11/02 09:57:48;;;;;;;2.58;0.22;;;15.10;99.90;;;;;;4890296;28;20073;-96
2023/11/02 10:00:17;;;;;;;3.97;0.30;;;15.20;99.90;;;;;;4926926;28;20040;-95
2023/11/02 10:02:46;;;;;;;5.82;0.47;;;15.20;99.90;;;;;;4889523;28;20049;-95
2023/11/02 10:05:11;;;;;;;2.38;0.20;;;15.10;99.90;;;;;;4882192;29;20025;-93
2023/11/02 10:07:37;;;;;;;8.75;0.30;;;15.10;99.90;;;;;;4892388;29;20389;-93
2023/11/02 10:10:04;;;;;;;4.90;0.30;;;15.30;99.90;;;;;;4889310;28;20488;-95
2023/11/02 10:12:35;;;;;;;3.55;0.20;;;15.20;99.90;;;;;;4918571;28;20030;-94
2023/11/02 10:15:02;;;;;;;4.65;0.25;;;15.30;99.90;;;;;;4908358;28;20037;-94
2023/11/02 10:17:39;;;;;;;4.13;0.40;;;15.50;99.90;;;;;;4890187;28;20029;-93
2023/11/02 10:20:15;;;;;;;4.35;0.30;;;15.40;99.90;;;;;;4893085;28;20396;-94
2023/11/02 10:22:42;;;;;;;2.90;0.20;;;15.30;99.90;;;;;;4896732;28;20116;-94
2023/11/02 10:25:12;;;;;;;5.57;0.40;;;15.20;99.90;;;;;;4896045;28;20035;-94
2023/11/02 10:27:40;;;;;;;3.83;0.43;;;15.30;99.90;;;;;;4894578;28;20037;-95
2023/11/02 10:30:06;;;;;;;5.93;0.40;;;15.30;99.90;;;;;;4896646;28;20028;-95
2023/11/02 10:32:31;;;;;;;3.03;0.50;;;15.40;99.90;;;;;;4934550;28;20036;-93
2023/11/02 10:34:58;;;;;;;4.85;0.30;;;15.30;99.90;;;;;;4891096;29;20037;-94
2023/11/02 10:37:36;;;;;;;3.78;0.30;;;15.30;99.90;;;;;;4908003;28;20029;-95
2023/11/02 10:40:03;;;;;;;6.70;0.40;;;15.20;99.90;;;;;;4892916;28;20039;-93
2023/11/02 10:42:29;;;;;;;5.85;0.60;;;15.20;99.90;;;;;;4895113;28;20033;-95
2023/11/02 10:44:56;;;;;;;4.47;0.30;;;15.10;99.90;;;;;;4895960;28;20041;-94
2023/11/02 10:47:29;;;;;;;8.38;0.60;;;15.10;99.90;;;;;;4894873;28;20507;-93
2023/11/02 10:49:57;;;;;;;4.78;0.70;;;15.10;99.90;;;;;;4895707;28;20484;-95
2023/11/02 10:52:42;;;;;;;8.75;0.38;;;15.20;99.90;;;;;;4901694;28;20038;-96
2023/11/02 10:55:21;;;;;;;7.20;0.77;;;15.20;99.90;;;;;;4897546;28;20139;-93
2023/11/02 10:57:48;;;;;;;3.05;0.30;;;15.20;99.90;;;;;;4901441;28;20028;-94
2023/11/02 11:00:16;;;;;;;3.88;0.28;;;15.20;99.90;;;;;;4898402;28;20391;-95
2023/11/02 11:02:45;;;;;;;7.10;0.38;;;15.20;99.90;;;;;;4889379;28;20048;-93
2023/11/02 11:05:13;;;;;;;4.00;0.20;;;15.30;99.90;;;;;;4911584;28;20031;-96
2023/11/02 11:07:41;;;;;;;2.72;0.20;;;15.30;99.90;;;;;;4907703;28;20033;-93
2023/11/02 11:10:12;;;;;;;6.97;0.45;;;15.30;99.90;;;;;;4892232;28;20021;-92
2023/11/02 11:12:39;;;;;;;7.43;0.50;;;15.30;99.90;;;;;;4890859;28;20036;-92
2023/11/02 11:15:07;;;;;;;5.75;0.32;;;15.30;99.90;;;;;;4896099;28;20052;-94
2023/11/02 11:17:33;;;;;;;8.63;0.52;;;15.40;99.90;;;;;;4896506;28;20083;-93
2023/11/02 11:19:59;;;;;;;8.25;1.30;;;15.40;99.90;;;;;;4895477;28;20075;-91
2023/11/02 11:22:30;;;;;;;9.77;1.23;;;15.30;99.90;;;;;;4889460;28;20373;-93
2023/11/02 11:25:00;;;;;;;5.43;0.57;;;15.40;99.90;;;;;;4897635;28;20024;-94
2023/11/02 11:27:34;;;;;;;4.32;0.50;;;15.40;99.90;;;;;;4897394;28;20366;-94
2023/11/02 11:30:04;;;;;;;2.38;0.50;;;15.50;99.90;;;;;;4892748;28;20065;-92
2023/11/02 11:32:38;;;;;;;6.03;0.40;;;15.50;99.90;;;;;;4890485;28;20036;-93
2023/11/02 11:35:09;;;;;;;6.65;0.30;;;15.50;99.90;;;;;;4891974;28;20040;-94
2023/11/02 11:37:45;;;;;;;7.82;0.57;;;15.40;99.90;;;;;;4922392;28;20029;-92
2023/11/02 11:40:20;;;;;;;7.03;0.50;;;15.50;99.90;;;;;;4897474;28;20060;-92
2023/11/02 11:43:15;;;;;;;6.00;0.40;;;15.40;99.90;;;;;;4906280;28;20035;-94
2023/11/02 11:45:48;;;;;;;5.13;0.40;;;15.40;99.90;;;;;;4895414;28;20087;-93
2023/11/02 11:48:43;;;;;;;5.80;0.30;;;15.20;99.90;;;;;;4910739;28;20024;-92
2023/11/02 11:51:43;;;;;;;10.20;0.50;;;15.20;99.90;;;;;;4904317;28;20029;-93
2023/11/02 11:54:15;;;;;;;5.97;0.40;;;15.00;99.90;;;;;;4893908;29;20100;-93
2023/11/02 11:56:42;;;;;;;4.22;0.38;;;14.90;99.90;;;;;;4881974;28;20033;-95
2023/11/02 11:59:09;;;;;;;5.82;0.35;;;14.80;99.90;;;;;;4896388;28;20481;-94
2023/11/02 12:01:35;;;;;;;6.90;0.52;;;14.60;99.90;;;;;;4895071;28;20033;-93
2023/11/02 12:04:02;;;;;;;5.07;0.30;;;14.50;99.90;;;;;;4893623;28;20955;-94
2023/11/02 12:06:54;;;;;;;5.82;1.00;;;14.40;99.90;;;;;;4895273;28;20076;-92
2023/11/02 12:09:25;;;;;;;3.72;0.40;;;14.30;99.90;;;;;;4903572;28;20044;-92
2023/11/02 12:11:51;;;;;;;7.30;0.38;;;14.30;99.90;;;;;;4885418;28;20037;-92
2023/11/02 12:14:20;;;;;;;2.85;0.20;;;14.30;99.90;;;;;;4894672;29;20040;-94
2023/11/02 12:16:47;;;;;;;10.73;0.80;;;14.30;99.90;;;;;;4894883;28;20031;-93
2023/11/02 12:19:13;;;;;;;2.72;0.50;;;14.40;99.90;;;;;;4895440;28;20029;-93
2023/11/02 12:21:40;;;;;;;3.38;0.30;;;14.50;99.90;;;;;;4891593;28;20067;-93
2023/11/02 12:24:10;;;;;;;6.32;0.50;;;14.50;99.90;;;;;;4903541;28;20454;-94
2023/11/02 12:26:36;;;;;;;12.20;0.77;;;14.50;99.90;;;;;;4894164;28;20034;-95
2023/11/02 12:29:08;;;;;;;5.55;0.32;;;14.60;99.90;;;;;;4893796;29;20047;-92
2023/11/02 12:31:43;;;;;;;8.75;0.40;;;14.80;99.90;;;;;;4905587;28;20047;-94
2023/11/02 12:34:13;;;;;;;4.80;0.40;;;14.90;99.90;;;;;;4912192;28;20168;-93
2023/11/02 12:36:40;;;;;;;5.40;0.40;;;14.90;99.90;;;;;;4889915;28;20484;-94
2023/11/02 12:39:21;;;;;;;8.75;0.30;;;15.10;99.90;;;;;;4883373;28;20052;-94
2023/11/02 12:41:50;;;;;;;10.73;0.35;;;15.20;99.90;;;;;;4890485;28;20021;-92
2023/11/02 12:44:22;;;;;;;5.65;0.30;;;15.20;99.90;;;;;;4904656;28;20029;-94
2023/11/02 12:46:52;;;;;;;3.72;0.50;;;15.10;99.90;;;;;;4894361;28;20036;-94
2023/11/02 12:49:26;;;;;;;5.70;0.50;;;15.10;99.90;;;;;;4891947;28;20036;-94
2023/11/02 12:52:01;;;;;;;5.47;0.40;;;15.20;99.90;;;;;;4889569;28;20072;-94
2023/11/02 12:54:27;;;;;;;4.50;0.40;;;15.20;99.90;;;;;;4907789;28;20044;-95
2023/11/02 12:56:54;;;;;;;4.15;0.30;;;15.20;99.80;;;;;;4896522;28;20444;-95
2023/11/02 12:59:23;;;;;;;5.22;0.30;;;15.20;99.50;;;;;;4897429;28;20056;-95
2023/11/02 13:01:54;;;;;;;8.48;0.50;;;15.20;99.00;;;;;;4893806;28;20088;-95
2023/11/02 13:04:47;;;;;;;8.27;0.38;;;15.20;98.90;;;;;;4895209;28;20092;-95